createdAt,value
2024-03-12T00:00:32.368Z,0
2024-03-12T00:01:33.175Z,0
2024-03-12T00:02:33.877Z,0
2024-03-12T00:03:34.705Z,0
2024-03-12T00:04:35.452Z,0
2024-03-12T00:05:36.222Z,0
2024-03-12T00:06:37.034Z,0
2024-03-12T00:07:38.079Z,0
2024-03-12T00:09:09.249Z,0
2024-03-12T00:10:10.468Z,0
2024-03-12T00:11:11.381Z,0
2024-03-12T00:12:12.146Z,0
2024-03-12T00:13:12.983Z,0
2024-03-12T00:14:13.509Z,0
2024-03-12T00:15:14.196Z,0
2024-03-12T00:16:14.934Z,0
2024-03-12T00:17:15.600Z,0
2024-03-12T00:18:16.290Z,0
2024-03-12T00:19:17.182Z,0
2024-03-12T00:20:17.810Z,0
2024-03-12T00:21:18.469Z,0
2024-03-12T00:22:19.244Z,0
2024-03-12T00:23:19.932Z,0
2024-03-12T00:24:20.609Z,0
2024-03-12T00:25:21.318Z,0
2024-03-12T00:26:21.890Z,0
2024-03-12T00:27:22.523Z,0
2024-03-12T00:28:23.184Z,0
2024-03-12T00:29:23.818Z,0
2024-03-12T00:30:24.645Z,0
2024-03-12T00:31:25.235Z,0
2024-03-12T00:32:25.906Z,0
2024-03-12T00:33:27.307Z,0
2024-03-12T00:34:28.465Z,0
2024-03-12T00:35:30.009Z,0
2024-03-12T00:36:31.698Z,0
2024-03-12T00:37:32.727Z,0
2024-03-12T00:38:33.746Z,0
2024-03-12T00:39:34.756Z,0
2024-03-12T00:40:36.091Z,0
2024-03-12T00:41:37.907Z,0
2024-03-12T00:43:09.941Z,0
2024-03-12T00:44:11.185Z,0
2024-03-12T00:45:11.819Z,0
2024-03-12T00:46:12.653Z,0
2024-03-12T00:47:13.420Z,0
2024-03-12T00:48:14.704Z,0
2024-03-12T00:49:14.802Z,0
2024-03-12T00:50:15.529Z,0
2024-03-12T00:51:16.076Z,0
2024-03-12T00:52:16.890Z,0
2024-03-12T00:53:17.839Z,0
2024-03-12T00:54:18.441Z,0
2024-03-12T00:55:19.046Z,0
2024-03-12T00:56:19.766Z,0
2024-03-12T00:57:20.400Z,0
2024-03-12T00:58:21.410Z,0
2024-03-12T00:59:21.740Z,0
2024-03-12T01:00:22.469Z,0
2024-03-12T01:01:23.316Z,0
2024-03-12T01:02:23.743Z,0
2024-03-12T01:03:24.424Z,0
2024-03-12T01:04:24.966Z,0
2024-03-12T01:05:25.596Z,0
2024-03-12T01:06:26.193Z,0
2024-03-12T01:07:26.734Z,0
2024-03-12T01:08:27.451Z,0
2024-03-12T01:09:28.136Z,0
2024-03-12T01:10:28.716Z,0
2024-03-12T01:11:29.435Z,0
2024-03-12T01:12:30.731Z,0
2024-03-12T01:13:31.321Z,0
2024-03-12T01:14:31.920Z,0
2024-03-12T01:15:32.611Z,0
2024-03-12T01:16:33.194Z,0
2024-03-12T01:17:33.851Z,0
2024-03-12T01:18:34.680Z,0
2024-03-12T01:19:35.240Z,0
2024-03-12T01:20:36.360Z,0
2024-03-12T01:21:36.532Z,0
2024-03-12T01:23:08.121Z,0
2024-03-12T01:24:08.601Z,0
2024-03-12T01:25:09.265Z,0
2024-03-12T01:26:09.796Z,0
2024-03-12T01:27:10.387Z,0
2024-03-12T01:28:11.034Z,0
2024-03-12T01:29:11.942Z,0
2024-03-12T01:30:12.645Z,0
2024-03-12T01:31:13.373Z,0
2024-03-12T01:32:13.970Z,0
2024-03-12T01:33:14.609Z,0
2024-03-12T01:34:15.342Z,0
2024-03-12T01:35:16.119Z,0
2024-03-12T01:36:16.641Z,0
2024-03-12T01:37:17.334Z,0
2024-03-12T01:38:17.980Z,0
2024-03-12T01:39:18.769Z,0
2024-03-12T01:40:19.464Z,0
2024-03-12T01:41:20.092Z,0
2024-03-12T01:42:20.713Z,0
2024-03-12T01:43:21.359Z,0
2024-03-12T01:44:22.020Z,0
2024-03-12T01:45:22.634Z,0
2024-03-12T01:46:23.248Z,0
2024-03-12T01:47:23.933Z,0
2024-03-12T01:48:24.646Z,0
2024-03-12T01:49:25.342Z,0
2024-03-12T01:50:26.344Z,0
2024-03-12T01:51:26.767Z,0
2024-03-12T01:52:27.429Z,0
2024-03-12T01:53:28.037Z,0
2024-03-12T01:54:28.702Z,0
2024-03-12T01:55:29.236Z,0
2024-03-12T01:56:30.440Z,0
2024-03-12T01:57:31.185Z,0
2024-03-12T01:58:31.975Z,0
2024-03-12T01:59:32.583Z,0
2024-03-12T02:00:33.349Z,0
2024-03-12T02:01:34.231Z,0
2024-03-12T02:02:34.718Z,0
2024-03-12T02:03:35.367Z,0
2024-03-12T02:04:35.942Z,0
2024-03-12T02:06:07.090Z,0
2024-03-12T02:07:08.123Z,0
2024-03-12T02:08:08.654Z,0
2024-03-12T02:09:09.319Z,0
2024-03-12T02:10:10.193Z,0
2024-03-12T02:11:10.752Z,0
2024-03-12T02:12:11.410Z,0
2024-03-12T02:13:12.120Z,0
2024-03-12T02:14:12.712Z,0
2024-03-12T02:15:13.350Z,0
2024-03-12T02:16:14.048Z,0
2024-03-12T02:17:14.605Z,0
2024-03-12T02:18:15.329Z,0
2024-03-12T02:19:15.825Z,0
2024-03-12T02:20:16.530Z,0
2024-03-12T02:21:17.125Z,0
2024-03-12T02:22:17.908Z,0
2024-03-12T02:23:18.613Z,0
2024-03-12T02:24:19.585Z,0
2024-03-12T02:25:20.213Z,0
2024-03-12T02:26:20.972Z,0
2024-03-12T02:27:21.640Z,0
2024-03-12T02:28:22.242Z,0
2024-03-12T02:29:22.920Z,0
2024-03-12T02:30:23.732Z,0
2024-03-12T02:31:24.258Z,0
2024-03-12T02:32:25.116Z,0
2024-03-12T02:33:25.761Z,0
2024-03-12T02:34:26.399Z,0
2024-03-12T02:35:27.155Z,0
2024-03-12T02:36:27.826Z,0
2024-03-12T02:37:28.383Z,0
2024-03-12T02:38:29.007Z,0
2024-03-12T02:39:29.732Z,0
2024-03-12T02:40:30.758Z,0
2024-03-12T02:41:31.484Z,0
2024-03-12T02:42:32.110Z,0
2024-03-12T02:43:32.685Z,0
2024-03-12T02:44:33.334Z,0
2024-03-12T02:45:34.034Z,0
2024-03-12T02:46:34.600Z,0
2024-03-12T02:47:35.206Z,0
2024-03-12T02:49:06.714Z,0
2024-03-12T02:50:07.320Z,0
2024-03-12T02:51:07.963Z,0
2024-03-12T02:52:08.731Z,0
2024-03-12T02:53:09.271Z,0
2024-03-12T02:54:09.936Z,0
2024-03-12T02:55:10.795Z,0
2024-03-12T02:56:11.235Z,0
2024-03-12T02:57:11.852Z,0
2024-03-12T02:58:12.570Z,0
2024-03-12T02:59:13.148Z,0
2024-03-12T03:00:15.471Z,0
2024-03-12T03:01:14.776Z,0
2024-03-12T03:02:15.337Z,0
2024-03-12T03:03:16.230Z,0
2024-03-12T03:04:16.808Z,0
2024-03-12T03:05:17.473Z,0
2024-03-12T03:06:18.129Z,0
2024-03-12T03:07:18.774Z,0
2024-03-12T03:08:19.424Z,0
2024-03-12T03:09:20.097Z,0
2024-03-12T03:10:20.842Z,0
2024-03-12T03:11:21.412Z,0
2024-03-12T03:12:22.063Z,0
2024-03-12T03:13:22.652Z,0
2024-03-12T03:14:23.342Z,0
2024-03-12T03:15:24.136Z,0
2024-03-12T03:16:24.676Z,0
2024-03-12T03:17:25.380Z,0
2024-03-12T03:18:26.015Z,0
2024-03-12T03:19:26.549Z,0
2024-03-12T03:20:27.210Z,0
2024-03-12T03:21:27.818Z,0
2024-03-12T03:22:28.415Z,0
2024-03-12T03:23:29.136Z,0
2024-03-12T03:24:30.286Z,0
2024-03-12T03:25:30.944Z,0
2024-03-12T03:26:31.629Z,0
2024-03-12T03:27:32.318Z,0
2024-03-12T03:28:32.984Z,0
2024-03-12T03:30:06.054Z,0
2024-03-12T03:31:06.781Z,0
2024-03-12T03:32:07.348Z,0
2024-03-12T03:33:08.011Z,0
2024-03-12T03:34:08.632Z,0
2024-03-12T03:35:09.192Z,0
2024-03-12T03:36:09.823Z,0
2024-03-12T03:37:10.784Z,0
2024-03-12T03:38:11.282Z,0
2024-03-12T03:39:11.887Z,0
2024-03-12T03:40:13.012Z,0
2024-03-12T03:41:13.137Z,0
2024-03-12T03:42:13.716Z,0
2024-03-12T03:43:14.424Z,0
2024-03-12T03:44:15.553Z,0
2024-03-12T03:45:15.644Z,0
2024-03-12T03:46:16.223Z,0
2024-03-12T03:47:16.972Z,0
2024-03-12T03:48:17.618Z,0
2024-03-12T03:49:18.249Z,0
2024-03-12T03:50:19.029Z,0
2024-03-12T03:51:19.627Z,0
2024-03-12T03:52:20.203Z,0
2024-03-12T03:53:20.847Z,0
2024-03-12T03:54:21.477Z,0
2024-03-12T03:55:22.108Z,0
2024-03-12T03:56:22.738Z,0
2024-03-12T03:57:23.318Z,0
2024-03-12T03:58:23.997Z,0
2024-03-12T03:59:24.679Z,0
2024-03-12T04:00:25.398Z,0
2024-03-12T04:01:26.052Z,0
2024-03-12T04:02:26.552Z,0
2024-03-12T04:03:27.215Z,0
2024-03-12T04:04:27.746Z,0
2024-03-12T04:05:28.520Z,0
2024-03-12T04:06:29.235Z,0
2024-03-12T04:07:30.369Z,0
2024-03-12T04:08:30.982Z,0
2024-03-12T04:09:31.641Z,0
2024-03-12T04:10:32.447Z,0
2024-03-12T04:11:33.188Z,0
2024-03-12T04:12:33.833Z,0
2024-03-12T04:13:34.927Z,0
2024-03-12T04:15:05.915Z,0
2024-03-12T04:16:06.637Z,0
2024-03-12T04:17:07.300Z,0
2024-03-12T04:18:08.142Z,0
2024-03-12T04:19:08.765Z,0
2024-03-12T04:20:09.363Z,0
2024-03-12T04:21:09.996Z,0
2024-03-12T04:22:10.753Z,0
2024-03-12T04:23:11.375Z,0
2024-03-12T04:24:12.261Z,0
2024-03-12T04:25:12.854Z,0
2024-03-12T04:26:13.453Z,0
2024-03-12T04:27:14.235Z,0
2024-03-12T04:28:15.230Z,0
2024-03-12T04:29:15.849Z,0
2024-03-12T04:30:16.616Z,0
2024-03-12T04:31:17.282Z,0
2024-03-12T04:32:18.043Z,0
2024-03-12T04:33:18.985Z,0
2024-03-12T04:34:19.427Z,0
2024-03-12T04:35:20.474Z,0
2024-03-12T04:36:21.279Z,0
2024-03-12T04:37:22.046Z,0
2024-03-12T04:38:23.086Z,0
2024-03-12T04:39:23.817Z,0
2024-03-12T04:40:24.680Z,0
2024-03-12T04:41:25.308Z,0
2024-03-12T04:42:25.930Z,0
2024-03-12T04:43:26.695Z,0
2024-03-12T04:44:27.311Z,0
2024-03-12T04:45:28.195Z,0
2024-03-12T04:46:28.816Z,0
2024-03-12T04:47:29.718Z,0
2024-03-12T04:48:30.952Z,0
2024-03-12T04:49:31.606Z,0
2024-03-12T04:50:32.256Z,0
2024-03-12T04:51:32.991Z,0
2024-03-12T04:52:33.733Z,0
2024-03-12T04:54:05.044Z,0
2024-03-12T04:55:05.794Z,0
2024-03-12T04:56:06.464Z,0
2024-03-12T04:57:07.135Z,0
2024-03-12T04:58:07.964Z,0
2024-03-12T04:59:08.576Z,0
2024-03-12T05:00:09.266Z,0
2024-03-12T05:01:10.141Z,0
2024-03-12T05:02:10.882Z,0
2024-03-12T05:03:11.526Z,0
2024-03-12T05:04:18.140Z,0
2024-03-12T05:05:13.333Z,0
2024-03-12T05:06:14.331Z,0
2024-03-12T05:07:15.561Z,0
2024-03-12T05:08:16.135Z,0
2024-03-12T05:09:16.879Z,0
2024-03-12T05:10:17.732Z,0
2024-03-12T05:11:18.631Z,0
2024-03-12T05:12:19.582Z,0
2024-03-12T05:13:20.366Z,0
2024-03-12T05:14:21.324Z,0
2024-03-12T05:15:22.028Z,0
2024-03-12T05:16:25.449Z,0
2024-03-12T05:17:23.521Z,0
2024-03-12T05:18:24.168Z,0
2024-03-12T05:19:24.823Z,0
2024-03-12T05:20:25.500Z,0
2024-03-12T05:21:28.015Z,0
2024-03-12T05:22:26.962Z,0
2024-03-12T05:23:27.583Z,0
2024-03-12T05:24:28.303Z,0
2024-03-12T05:25:29.057Z,0
2024-03-12T05:26:29.941Z,0
2024-03-12T05:27:31.070Z,0
2024-03-12T05:28:31.760Z,0
2024-03-12T05:29:32.362Z,0
2024-03-12T05:30:33.173Z,0
2024-03-12T05:31:34.326Z,0
2024-03-12T05:33:05.428Z,0
2024-03-12T05:34:06.069Z,0
2024-03-12T05:35:06.723Z,0
2024-03-12T05:36:07.484Z,0
2024-03-12T05:37:08.225Z,0
2024-03-12T05:38:08.858Z,0
2024-03-12T05:39:09.648Z,0
2024-03-12T05:40:10.565Z,0
2024-03-12T05:41:11.108Z,0
2024-03-12T05:42:11.795Z,0
2024-03-12T05:43:12.513Z,0
2024-03-12T05:44:13.026Z,0
2024-03-12T05:45:13.578Z,0
2024-03-12T05:46:14.292Z,0
2024-03-12T05:47:14.962Z,0
2024-03-12T05:48:15.552Z,0
2024-03-12T05:49:16.265Z,0
2024-03-12T05:50:16.827Z,0
2024-03-12T05:51:17.467Z,0
2024-03-12T05:52:18.114Z,0
2024-03-12T05:53:18.753Z,0
2024-03-12T05:54:19.425Z,0
2024-03-12T05:55:20.070Z,0
2024-03-12T05:56:20.684Z,0
2024-03-12T05:57:21.297Z,0
2024-03-12T05:58:21.932Z,0
2024-03-12T05:59:22.514Z,0
2024-03-12T06:00:23.093Z,0
2024-03-12T06:01:23.791Z,0
2024-03-12T06:02:24.436Z,0
2024-03-12T06:03:25.093Z,0
2024-03-12T06:04:25.703Z,0
2024-03-12T06:05:26.293Z,0
2024-03-12T06:06:26.828Z,0
2024-03-12T06:07:27.406Z,0
2024-03-12T06:08:27.932Z,0
2024-03-12T06:09:28.663Z,0
2024-03-12T06:10:29.232Z,0
2024-03-12T06:11:30.435Z,0
2024-03-12T06:12:31.164Z,0
2024-03-12T06:13:31.961Z,0
2024-03-12T06:14:32.409Z,0
2024-03-12T06:15:33.034Z,0
2024-03-12T06:17:04.230Z,5.625
2024-03-12T06:18:04.861Z,5.625
2024-03-12T06:19:05.780Z,5.625
2024-03-12T06:20:07.972Z,5.625
2024-03-12T06:21:06.943Z,5.625
2024-03-12T06:22:07.616Z,5.625
2024-03-12T06:23:08.124Z,5.625
2024-03-12T06:24:08.710Z,5.625
2024-03-12T06:25:09.479Z,5.625
2024-03-12T06:26:09.960Z,5.625
2024-03-12T06:27:10.506Z,5.625
2024-03-12T06:28:11.184Z,5.625
2024-03-12T06:29:11.701Z,5.625
2024-03-12T06:30:12.448Z,5.625
2024-03-12T06:31:13.183Z,5.625
2024-03-12T06:32:13.673Z,5.625
2024-03-12T06:33:14.457Z,11.25
2024-03-12T06:34:15.088Z,11.25
2024-03-12T06:35:15.573Z,11.25
2024-03-12T06:36:16.158Z,11.25
2024-03-12T06:37:16.840Z,11.25
2024-03-12T06:38:17.506Z,11.25
2024-03-12T06:39:17.963Z,11.25
2024-03-12T06:40:48.725Z,11.25
2024-03-12T06:42:19.708Z,11.25
2024-03-12T06:43:20.385Z,11.25
2024-03-12T06:44:20.966Z,11.25
2024-03-12T06:45:21.613Z,11.25
2024-03-12T06:46:22.380Z,16.875
2024-03-12T06:47:22.961Z,16.875
2024-03-12T06:48:23.554Z,16.875
2024-03-12T06:49:24.155Z,16.875
2024-03-12T06:50:24.796Z,16.875
2024-03-12T06:51:25.445Z,16.875
2024-03-12T06:52:28.268Z,16.875
2024-03-12T06:53:28.849Z,16.875
2024-03-12T06:54:29.819Z,16.875
2024-03-12T06:55:30.862Z,16.875
2024-03-12T06:56:31.553Z,16.875
2024-03-12T06:57:32.174Z,16.875
2024-03-12T06:58:33.248Z,16.875
2024-03-12T07:00:04.443Z,16.875
2024-03-12T07:01:05.138Z,16.875
2024-03-12T07:02:05.751Z,22.5
2024-03-12T07:03:06.472Z,22.5
2024-03-12T07:04:07.086Z,22.5
2024-03-12T07:05:07.898Z,22.5
2024-03-12T07:06:08.691Z,28.125
2024-03-12T07:07:09.482Z,28.125
2024-03-12T07:08:10.074Z,28.125
2024-03-12T07:09:13.630Z,28.125
2024-03-12T07:10:11.486Z,28.125
2024-03-12T07:11:12.146Z,33.75
2024-03-12T07:12:12.803Z,33.75
2024-03-12T07:13:13.659Z,33.75
2024-03-12T07:14:14.214Z,33.75
2024-03-12T07:15:14.875Z,33.75
2024-03-12T07:16:15.602Z,33.75
2024-03-12T07:17:16.244Z,33.75
2024-03-12T07:18:17.135Z,33.75
2024-03-12T07:19:17.836Z,33.75
2024-03-12T07:20:18.549Z,39.375
2024-03-12T07:21:19.292Z,39.375
2024-03-12T07:22:20.023Z,39.375
2024-03-12T07:23:20.695Z,39.375
2024-03-12T07:24:21.425Z,39.375
2024-03-12T07:25:22.269Z,39.375
2024-03-12T07:26:22.897Z,45
2024-03-12T07:27:23.666Z,45
2024-03-12T07:28:25.161Z,50.625
2024-03-12T07:29:25.015Z,50.625
2024-03-12T07:30:25.702Z,56.25
2024-03-12T07:31:26.471Z,56.25
2024-03-12T07:32:27.244Z,56.25
2024-03-12T07:33:28.208Z,61.875
2024-03-12T07:34:28.838Z,61.875
2024-03-12T07:35:29.611Z,67.5
2024-03-12T07:36:30.806Z,67.5
2024-03-12T07:37:31.501Z,73.125
2024-03-12T07:38:32.159Z,73.125
2024-03-12T07:40:03.474Z,78.75
2024-03-12T07:41:04.224Z,78.75
2024-03-12T07:42:04.913Z,84.375
2024-03-12T07:43:05.946Z,84.375
2024-03-12T07:44:06.294Z,90
2024-03-12T07:45:06.953Z,90
2024-03-12T07:46:07.599Z,95.625
2024-03-12T07:47:08.294Z,95.625
2024-03-12T07:48:08.980Z,101.25
2024-03-12T07:49:11.346Z,106.875
2024-03-12T07:50:10.618Z,106.875
2024-03-12T07:51:11.272Z,106.875
2024-03-12T07:52:12.045Z,106.875
2024-03-12T07:53:12.717Z,106.875
2024-03-12T07:54:13.426Z,106.875
2024-03-12T07:55:14.451Z,106.875
2024-03-12T07:56:14.934Z,106.875
2024-03-12T07:57:17.578Z,106.875
2024-03-12T07:58:16.425Z,101.25
2024-03-12T07:59:17.223Z,101.25
2024-03-12T08:00:18.504Z,95.625
2024-03-12T08:01:18.751Z,90
2024-03-12T08:02:19.335Z,84.375
2024-03-12T08:03:20.035Z,78.75
2024-03-12T08:04:20.729Z,78.75
2024-03-12T08:05:21.276Z,73.125
2024-03-12T08:06:21.921Z,78.75
2024-03-12T08:07:22.589Z,78.75
2024-03-12T08:08:23.425Z,84.375
2024-03-12T08:09:24.100Z,84.375
2024-03-12T08:10:25.048Z,84.375
2024-03-12T08:11:25.715Z,90
2024-03-12T08:12:26.404Z,101.25
2024-03-12T08:13:27.124Z,106.875
2024-03-12T08:14:27.916Z,112.5
2024-03-12T08:15:28.756Z,118.125
2024-03-12T08:16:29.425Z,129.375
2024-03-12T08:17:30.817Z,135
2024-03-12T08:18:31.724Z,135
2024-03-12T08:20:02.940Z,129.375
2024-03-12T08:21:03.952Z,129.375
2024-03-12T08:22:04.880Z,135
2024-03-12T08:23:05.810Z,146.25
2024-03-12T08:24:06.659Z,163.125
2024-03-12T08:25:08.042Z,168.75
2024-03-12T08:26:08.844Z,174.375
2024-03-12T08:27:09.719Z,174.375
2024-03-12T08:28:10.685Z,174.375
2024-03-12T08:29:11.489Z,163.125
2024-03-12T08:30:12.550Z,151.875
2024-03-12T08:31:19.335Z,151.875
2024-03-12T08:32:14.552Z,151.875
2024-03-12T08:33:15.294Z,151.875
2024-03-12T08:34:16.224Z,157.5
2024-03-12T08:35:16.909Z,151.875
2024-03-12T08:36:17.689Z,140.625
2024-03-12T08:37:18.741Z,135
2024-03-12T08:38:19.551Z,118.125
2024-03-12T08:39:20.312Z,112.5
2024-03-12T08:40:21.435Z,112.5
2024-03-12T08:41:22.108Z,118.125
2024-03-12T08:42:22.985Z,129.375
2024-03-12T08:43:23.739Z,135
2024-03-12T08:44:24.611Z,135
2024-03-12T08:45:25.316Z,146.25
2024-03-12T08:46:26.226Z,157.5
2024-03-12T08:47:26.972Z,168.75
2024-03-12T08:48:27.888Z,174.375
2024-03-12T08:49:28.927Z,174.375
2024-03-12T08:50:30.502Z,157.5
2024-03-12T08:51:32.183Z,157.5
2024-03-12T08:53:03.626Z,157.5
2024-03-12T08:54:04.433Z,157.5
2024-03-12T08:55:05.402Z,157.5
2024-03-12T08:56:06.019Z,157.5
2024-03-12T08:57:07.014Z,157.5
2024-03-12T08:58:07.953Z,163.125
2024-03-12T08:59:08.738Z,157.5
2024-03-12T09:00:09.991Z,180
2024-03-12T09:01:10.933Z,191.25
2024-03-12T09:02:11.878Z,191.25
2024-03-12T09:03:12.761Z,180
2024-03-12T09:04:13.836Z,196.875
2024-03-12T09:05:14.822Z,202.5
2024-03-12T09:06:15.701Z,196.875
2024-03-12T09:07:16.666Z,191.25
2024-03-12T09:08:17.468Z,185.625
2024-03-12T09:09:18.397Z,185.625
2024-03-12T09:10:19.287Z,174.375
2024-03-12T09:11:20.144Z,163.125
2024-03-12T09:12:20.799Z,163.125
2024-03-12T09:13:21.936Z,157.5
2024-03-12T09:14:22.806Z,157.5
2024-03-12T09:15:26.094Z,157.5
2024-03-12T09:16:24.639Z,151.875
2024-03-12T09:17:25.334Z,135
2024-03-12T09:18:27.761Z,123.75
2024-03-12T09:19:27.302Z,129.375
2024-03-12T09:20:28.469Z,129.375
2024-03-12T09:21:30.187Z,135
2024-03-12T09:22:31.729Z,140.625
2024-03-12T09:24:03.255Z,140.625
2024-03-12T09:25:03.945Z,157.5
2024-03-12T09:26:04.806Z,163.125
2024-03-12T09:27:05.772Z,163.125
2024-03-12T09:28:06.689Z,168.75
2024-03-12T09:29:07.358Z,180
2024-03-12T09:30:08.248Z,185.625
2024-03-12T09:31:09.308Z,180
2024-03-12T09:32:10.201Z,168.75
2024-03-12T09:33:11.177Z,168.75
2024-03-12T09:34:12.496Z,157.5
2024-03-12T09:35:13.192Z,146.25
2024-03-12T09:36:14.692Z,129.375
2024-03-12T09:37:15.587Z,118.125
2024-03-12T09:38:16.576Z,106.875
2024-03-12T09:39:17.503Z,101.25
2024-03-12T09:40:18.543Z,101.25
2024-03-12T09:41:19.459Z,106.875
2024-03-12T09:42:20.574Z,112.5
2024-03-12T09:43:21.568Z,90
2024-03-12T09:44:22.399Z,67.5
2024-03-12T09:45:23.157Z,61.875
2024-03-12T09:46:23.964Z,61.875
2024-03-12T09:47:24.850Z,67.5
2024-03-12T09:48:25.658Z,95.625
2024-03-12T09:49:26.696Z,90
2024-03-12T09:50:27.622Z,78.75
2024-03-12T09:51:28.522Z,78.75
2024-03-12T09:52:29.327Z,95.625
2024-03-12T09:53:30.613Z,101.25
2024-03-12T09:55:02.030Z,112.5
2024-03-12T09:56:05.489Z,123.75
2024-03-12T09:57:03.649Z,118.125
2024-03-12T09:58:04.620Z,135
2024-03-12T09:59:05.375Z,151.875
2024-03-12T10:00:06.181Z,151.875
2024-03-12T10:01:06.978Z,151.875
2024-03-12T10:02:07.775Z,140.625
2024-03-12T10:03:08.485Z,146.25
2024-03-12T10:04:09.299Z,151.875
2024-03-12T10:05:09.941Z,168.75
2024-03-12T10:06:11.037Z,180
2024-03-12T10:07:11.555Z,213.75
2024-03-12T10:08:12.924Z,213.75
2024-03-12T10:09:13.701Z,202.5
2024-03-12T10:10:14.399Z,213.75
2024-03-12T10:11:14.990Z,202.5
2024-03-12T10:12:15.722Z,208.125
2024-03-12T10:13:16.780Z,208.125
2024-03-12T10:14:16.986Z,202.5
2024-03-12T10:15:17.641Z,202.5
2024-03-12T10:16:18.317Z,196.875
2024-03-12T10:17:18.970Z,208.125
2024-03-12T10:18:19.580Z,219.375
2024-03-12T10:19:20.222Z,236.25
2024-03-12T10:20:21.069Z,241.875
2024-03-12T10:21:21.901Z,230.625
2024-03-12T10:22:22.971Z,230.625
2024-03-12T10:34:06.978Z,0
2024-03-12T10:35:07.766Z,264.375
2024-03-12T10:36:39.113Z,258.75
2024-03-12T10:37:39.726Z,253.125
2024-03-12T10:38:40.429Z,236.25
2024-03-12T10:39:41.301Z,213.75
2024-03-12T10:40:42.715Z,225
2024-03-12T10:41:43.398Z,230.625
2024-03-12T10:42:45.569Z,236.25
2024-03-12T10:43:46.137Z,247.5
2024-03-12T10:44:46.822Z,247.5
2024-03-12T10:45:47.434Z,258.75
2024-03-12T10:46:47.965Z,275.625
2024-03-12T10:47:48.577Z,281.25
2024-03-12T10:48:49.230Z,281.25
2024-03-12T10:49:49.953Z,286.875
2024-03-12T10:50:51.702Z,298.125
2024-03-12T10:51:52.339Z,303.75
2024-03-12T10:52:53.983Z,309.375
2024-03-12T10:53:54.872Z,309.375
2024-03-12T10:55:05.311Z,309.375
2024-03-12T10:55:56.806Z,309.375
2024-03-12T10:56:57.964Z,309.375
2024-03-12T10:57:58.583Z,309.375
2024-03-12T10:59:00.010Z,309.375
2024-03-12T11:00:01.434Z,303.75
2024-03-12T11:01:02.229Z,292.5
2024-03-12T11:02:06.047Z,281.25
2024-03-12T11:03:04.416Z,275.625
2024-03-12T11:04:06.029Z,270
2024-03-12T11:05:06.552Z,270
2024-03-12T11:06:38.677Z,275.625
2024-03-12T11:07:39.915Z,298.125
2024-03-12T11:08:41.539Z,315
2024-03-12T11:09:42.360Z,320.625
2024-03-12T11:10:44.140Z,309.375
2024-03-12T11:11:44.620Z,309.375
2024-03-12T11:12:46.007Z,292.5
2024-03-12T11:13:46.529Z,292.5
2024-03-12T11:14:47.971Z,303.75
2024-03-12T11:15:49.683Z,309.375
2024-03-12T11:16:50.293Z,315
2024-03-12T11:17:51.048Z,320.625
2024-03-12T11:18:53.191Z,320.625
2024-03-12T11:19:53.801Z,320.625
2024-03-12T11:21:02.554Z,320.625
2024-03-12T11:22:58.621Z,315
2024-03-12T11:23:59.580Z,315
2024-03-12T11:25:00.978Z,303.75
2024-03-12T11:26:01.701Z,309.375
2024-03-12T11:27:02.977Z,303.75
2024-03-12T11:28:04.420Z,292.5
2024-03-12T11:29:06.041Z,281.25
2024-03-12T11:30:07.836Z,258.75
2024-03-12T11:31:39.168Z,247.5
2024-03-12T11:32:41.247Z,247.5
2024-03-12T11:33:42.579Z,247.5
2024-03-12T11:34:43.388Z,241.875
2024-03-12T11:35:44.923Z,219.375
2024-03-12T11:36:47.108Z,185.625
2024-03-12T11:37:49.414Z,157.5
2024-03-12T11:38:50.924Z,140.625
2024-03-12T11:39:52.425Z,140.625
2024-03-12T11:40:54.022Z,146.25
2024-03-12T11:41:56.318Z,146.25
2024-03-12T11:42:58.107Z,140.625
2024-03-12T11:43:59.462Z,146.25
2024-03-12T11:45:00.941Z,151.875
2024-03-12T11:46:02.661Z,151.875
2024-03-12T11:47:04.180Z,135
2024-03-12T11:48:05.659Z,123.75
2024-03-12T11:49:06.435Z,112.5
2024-03-12T11:50:38.130Z,112.5
2024-03-12T11:51:39.370Z,129.375
2024-03-12T11:52:40.621Z,129.375
2024-03-12T11:53:42.055Z,135
2024-03-12T11:54:42.605Z,129.375
2024-03-12T11:55:43.878Z,101.25
2024-03-12T11:56:45.429Z,101.25
2024-03-12T11:57:46.588Z,123.75
2024-03-12T11:58:48.286Z,118.125
2024-03-12T11:59:49.423Z,106.875
2024-03-12T12:00:50.600Z,106.875
2024-03-12T12:01:52.078Z,106.875
2024-03-12T12:02:53.557Z,106.875
2024-03-12T12:03:54.297Z,118.125
2024-03-12T12:04:55.399Z,129.375
2024-03-12T12:05:56.865Z,140.625
2024-03-12T12:06:58.113Z,135
2024-03-12T12:07:59.566Z,135
2024-03-12T12:09:01.278Z,135
2024-03-12T12:10:00.808Z,118.125
2024-03-12T12:11:02.093Z,106.875
2024-03-12T12:12:03.426Z,106.875
2024-03-12T12:13:05.517Z,112.5
2024-03-12T12:14:07.412Z,140.625
2024-03-12T12:15:38.164Z,140.625
2024-03-12T12:16:39.877Z,135
2024-03-12T12:17:41.093Z,129.375
2024-03-12T12:18:42.305Z,140.625
2024-03-12T12:19:43.872Z,146.25
2024-03-12T12:20:45.330Z,146.25
2024-03-12T12:21:47.068Z,151.875
2024-03-12T12:22:48.334Z,163.125
2024-03-12T12:23:48.829Z,168.75
2024-03-12T12:24:50.365Z,174.375
2024-03-12T12:25:51.545Z,168.75
2024-03-12T12:26:53.042Z,157.5
2024-03-12T12:27:53.706Z,146.25
2024-03-12T12:28:54.882Z,146.25
2024-03-12T12:29:56.448Z,146.25
2024-03-12T12:30:57.831Z,146.25
2024-03-12T12:31:59.386Z,146.25
2024-03-12T12:33:00.841Z,157.5
2024-03-12T12:34:01.440Z,163.125
2024-03-12T12:35:02.838Z,168.75
2024-03-12T12:36:04.049Z,157.5
2024-03-12T12:37:11.734Z,151.875
2024-03-12T12:39:08.158Z,140.625
2024-03-12T12:40:39.892Z,135
2024-03-12T12:41:41.187Z,135
2024-03-12T12:42:42.599Z,146.25
2024-03-12T12:43:43.312Z,157.5
2024-03-12T12:44:44.866Z,168.75
2024-03-12T12:45:45.473Z,174.375
2024-03-12T12:46:47.828Z,185.625
2024-03-12T12:47:48.578Z,191.25
2024-03-12T12:48:50.567Z,208.125
2024-03-12T12:49:52.599Z,208.125
2024-03-12T12:50:53.871Z,202.5
2024-03-12T12:51:55.124Z,208.125
2024-03-12T12:52:55.717Z,213.75
2024-03-12T12:53:57.103Z,208.125
2024-03-12T12:54:58.447Z,202.5
2024-03-12T12:56:00.113Z,213.75
2024-03-12T12:57:01.557Z,236.25
2024-03-12T12:58:02.448Z,247.5
2024-03-12T12:59:03.368Z,241.875
2024-03-12T13:00:04.955Z,247.5
2024-03-12T13:01:06.722Z,264.375
2024-03-12T13:02:37.756Z,264.375
2024-03-12T13:03:39.319Z,275.625
2024-03-12T13:04:40.553Z,292.5
2024-03-12T13:05:42.822Z,303.75
2024-03-12T13:06:44.158Z,309.375
2024-03-12T13:07:45.605Z,326.25
2024-03-12T13:08:47.072Z,354.375
2024-03-12T13:09:47.940Z,382.5
2024-03-12T13:10:48.969Z,405
2024-03-12T13:11:50.425Z,433.125
2024-03-12T13:12:51.109Z,427.5
2024-03-12T13:13:51.745Z,388.125
2024-03-12T13:14:52.877Z,343.125
2024-03-12T13:15:54.395Z,264.375
2024-03-12T13:16:55.585Z,174.375
2024-03-12T13:17:56.222Z,157.5
2024-03-12T13:18:56.822Z,123.75
2024-03-12T13:19:58.374Z,112.5
2024-03-12T13:20:59.897Z,90
2024-03-12T13:22:01.283Z,84.375
2024-03-12T13:23:01.149Z,84.375
2024-03-12T13:24:01.846Z,84.375
2024-03-12T13:25:02.647Z,73.125
2024-03-12T13:26:03.986Z,67.5
2024-03-12T13:27:05.426Z,61.875
2024-03-12T13:28:07.193Z,84.375
2024-03-12T13:29:38.869Z,95.625
2024-03-12T13:30:40.371Z,101.25
2024-03-12T13:31:42.086Z,140.625
2024-03-12T13:32:43.723Z,202.5
2024-03-12T13:33:44.203Z,241.875
2024-03-12T13:34:44.883Z,247.5
2024-03-12T13:35:46.439Z,208.125
2024-03-12T13:36:47.100Z,157.5
2024-03-12T13:37:48.650Z,168.75
2024-03-12T13:38:50.096Z,191.25
2024-03-12T13:39:51.693Z,180
2024-03-12T13:40:53.199Z,180
2024-03-12T13:41:54.619Z,168.75
2024-03-12T13:42:56.117Z,157.5
2024-03-12T13:43:56.695Z,146.25
2024-03-12T13:44:57.308Z,135
2024-03-12T13:45:58.990Z,129.375
2024-03-12T13:47:00.100Z,123.75
2024-03-12T13:48:00.738Z,123.75
2024-03-12T13:49:01.984Z,123.75
2024-03-12T13:50:03.405Z,118.125
2024-03-12T13:51:04.597Z,118.125
2024-03-12T13:52:31.068Z,118.125
2024-03-12T13:53:38.594Z,118.125
2024-03-12T13:54:40.100Z,118.125
2024-03-12T13:55:40.761Z,118.125
2024-03-12T13:56:41.980Z,118.125
2024-03-12T13:57:43.543Z,129.375
2024-03-12T13:58:46.341Z,129.375
2024-03-12T13:59:46.430Z,129.375
2024-03-12T14:00:47.290Z,129.375
2024-03-12T14:01:48.197Z,129.375
2024-03-12T14:02:48.589Z,135
2024-03-12T14:03:50.693Z,146.25
2024-03-12T14:04:51.276Z,157.5
2024-03-12T14:05:53.162Z,174.375
2024-03-12T14:06:54.605Z,202.5
2024-03-12T14:07:55.334Z,219.375